Time;durP1;ratioP1;P1;durP2;ratioP2;P2;SDS_P1;SDS_P2;PMS_P1;PMS_P2;Temp;Humidity;BMP_temperature;BMP_pressure;BME280_temperature;BME280_humidity;BME280_pressure;Samples;Min_cycle;Max_cycle;Signal;HPM_P1;HPM_P2
2021/03/17 00:01:52;;;;;;;0.43;0.20;;;12.40;74.20;;;;;;5013059;28;20057;-81
2021/03/17 00:04:18;;;;;;;0.70;0.20;;;12.40;74.30;;;;;;4993991;28;20047;-80
2021/03/17 00:06:44;;;;;;;1.65;0.65;;;12.30;74.20;;;;;;5003091;28;20030;-81
2021/03/17 00:09:11;;;;;;;0.35;0.17;;;12.30;74.40;;;;;;4992069;28;20129;-80
2021/03/17 00:11:37;;;;;;;0.57;0.38;;;12.30;74.50;;;;;;4975621;28;20034;-80
2021/03/17 00:14:03;;;;;;;1.20;0.30;;;12.20;74.40;;;;;;4975777;28;20042;-80
2021/03/17 00:16:29;;;;;;;1.15;0.63;;;12.20;74.60;;;;;;4993054;28;20484;-80
2021/03/17 00:18:55;;;;;;;0.75;0.20;;;12.20;74.60;;;;;;4980799;28;20038;-79
2021/03/17 00:21:22;;;;;;;1.75;0.60;;;12.20;74.70;;;;;;5027013;28;20018;-80
2021/03/17 00:23:48;;;;;;;2.85;0.68;;;12.20;74.60;;;;;;4989600;28;20045;-82
2021/03/17 00:26:14;;;;;;;1.17;0.43;;;12.20;74.70;;;;;;5008277;28;20039;-79
2021/03/17 00:28:40;;;;;;;1.50;0.30;;;12.20;74.80;;;;;;4992896;28;20057;-82
2021/03/17 00:31:06;;;;;;;3.38;0.50;;;12.20;74.90;;;;;;4976870;28;20058;-80
2021/03/17 00:33:33;;;;;;;1.85;1.02;;;12.10;74.80;;;;;;4992390;28;20051;-81
2021/03/17 00:35:59;;;;;;;2.60;0.98;;;12.10;74.80;;;;;;5000653;28;20052;-80
2021/03/17 00:38:25;;;;;;;3.08;1.25;;;12.20;74.90;;;;;;5007646;28;20038;-81
2021/03/17 00:40:51;;;;;;;4.30;0.52;;;12.10;74.90;;;;;;5001040;28;20034;-80
2021/03/17 00:43:17;;;;;;;0.82;0.50;;;12.10;74.90;;;;;;4993239;28;20050;-80
2021/03/17 00:45:43;;;;;;;1.73;0.32;;;12.10;74.90;;;;;;5016934;28;20053;-81
2021/03/17 00:48:09;;;;;;;0.35;0.17;;;12.10;74.90;;;;;;4990258;28;20042;-81
2021/03/17 00:50:35;;;;;;;0.98;0.30;;;12.10;75.00;;;;;;5004533;28;20053;-80
2021/03/17 00:53:02;;;;;;;0.85;0.35;;;12.10;75.00;;;;;;5020359;28;20106;-80
2021/03/17 00:55:28;;;;;;;0.60;0.25;;;12.10;75.00;;;;;;5019300;28;20048;-79
2021/03/17 00:57:54;;;;;;;0.85;0.28;;;12.10;75.10;;;;;;5010122;28;20392;-79
2021/03/17 01:00:20;;;;;;;2.55;0.60;;;12.10;75.10;;;;;;4997684;28;20042;-79
2021/03/17 01:02:47;;;;;;;2.17;0.73;;;12.10;75.10;;;;;;4965089;28;20054;-78
2021/03/17 01:05:13;;;;;;;0.20;0.10;;;12.10;75.10;;;;;;5000348;28;20035;-79
2021/03/17 01:07:39;;;;;;;1.10;0.47;;;12.10;75.20;;;;;;5013743;28;20033;-79
2021/03/17 01:10:10;;;;;;;1.90;0.73;;;12.10;75.20;;;;;;5012157;28;20463;-79
2021/03/17 01:12:37;;;;;;;2.00;1.15;;;12.10;75.20;;;;;;4996440;28;20026;-79
2021/03/17 01:15:05;;;;;;;0.65;0.22;;;12.10;75.20;;;;;;4981525;28;20399;-80
2021/03/17 01:17:31;;;;;;;1.75;0.75;;;12.00;75.20;;;;;;4999079;28;20022;-79
2021/03/17 01:19:57;;;;;;;1.95;0.25;;;12.00;75.10;;;;;;5000935;28;20403;-79
2021/03/17 01:22:23;;;;;;;2.40;0.73;;;12.10;75.20;;;;;;5006403;28;20042;-80
2021/03/17 01:24:49;;;;;;;1.30;0.40;;;12.10;75.20;;;;;;5004928;28;20022;-79
2021/03/17 01:27:15;;;;;;;2.58;0.88;;;12.10;75.20;;;;;;4999349;28;20030;-79
2021/03/17 01:29:41;;;;;;;0.85;0.43;;;12.10;75.20;;;;;;4997453;28;20042;-81
2021/03/17 01:32:07;;;;;;;0.55;0.22;;;12.10;75.20;;;;;;4999065;28;20041;-79
2021/03/17 01:34:33;;;;;;;0.88;0.13;;;12.10;75.30;;;;;;4997478;28;20057;-80
2021/03/17 01:36:59;;;;;;;0.85;0.15;;;12.10;75.30;;;;;;4995069;28;20034;-81
2021/03/17 01:39:25;;;;;;;3.08;0.63;;;12.10;75.50;;;;;;5010645;28;20398;-80
2021/03/17 01:41:51;;;;;;;1.10;0.45;;;12.10;75.40;;;;;;4997888;28;20098;-80
2021/03/17 01:44:17;;;;;;;2.42;0.38;;;12.10;75.50;;;;;;5009562;28;20044;-80
2021/03/17 01:46:44;;;;;;;2.28;0.50;;;12.10;75.50;;;;;;5002282;28;20047;-80
2021/03/17 01:49:10;;;;;;;3.88;1.13;;;12.10;75.50;;;;;;5012821;28;20042;-79
2021/03/17 01:51:36;;;;;;;0.90;0.30;;;12.10;75.50;;;;;;4995638;28;20033;-79
2021/03/17 01:54:04;;;;;;;2.08;0.50;;;12.00;75.50;;;;;;5005800;28;20029;-81
2021/03/17 01:56:30;;;;;;;1.30;0.70;;;12.10;75.60;;;;;;5001943;28;20041;-80
2021/03/17 01:58:56;;;;;;;0.38;0.10;;;12.10;75.60;;;;;;5024100;28;20034;-80
2021/03/17 02:01:22;;;;;;;2.88;0.75;;;12.10;75.70;;;;;;5002820;28;20038;-84
2021/03/17 02:03:48;;;;;;;2.28;0.57;;;12.10;75.70;;;;;;5021576;28;20043;-81
2021/03/17 02:06:14;;;;;;;1.35;0.60;;;12.10;75.70;;;;;;4997920;28;20030;-80
2021/03/17 02:08:42;;;;;;;1.27;0.40;;;12.00;75.80;;;;;;5024100;28;20042;-80
2021/03/17 02:11:09;;;;;;;1.75;0.77;;;12.00;75.90;;;;;;5003521;28;20277;-80
2021/03/17 02:14:08;;;;;;;0.70;0.10;;;12.00;76.00;;;;;;4998520;28;20030;-80
2021/03/17 02:17:02;;;;;;;1.75;0.60;;;12.00;76.00;;;;;;4995314;28;20038;-80
2021/03/17 02:19:56;;;;;;;3.88;1.55;;;11.90;76.10;;;;;;5007503;28;20030;-80
2021/03/17 02:22:48;;;;;;;1.45;0.50;;;11.90;76.10;;;;;;4998788;28;20483;-80
2021/03/17 02:25:42;;;;;;;0.82;0.30;;;11.90;76.10;;;;;;5009872;28;20029;-84
2021/03/17 02:28:12;;;;;;;2.33;0.95;;;11.80;76.10;;;;;;5004163;28;20376;-79
2021/03/17 02:30:47;;;;;;;2.47;0.90;;;11.90;76.20;;;;;;5021462;28;20042;-80
2021/03/17 02:33:45;;;;;;;3.25;0.75;;;11.80;76.30;;;;;;5003484;28;20033;-81
2021/03/17 02:36:19;;;;;;;1.55;1.17;;;11.80;76.20;;;;;;5007662;28;20483;-80
2021/03/17 02:38:52;;;;;;;4.60;0.60;;;11.70;76.20;;;;;;5008858;28;20456;-81
2021/03/17 02:41:28;;;;;;;0.73;0.43;;;11.70;76.20;;;;;;4991461;28;20039;-80
2021/03/17 02:43:55;;;;;;;0.80;0.32;;;11.70;76.20;;;;;;4998138;28;20049;-82
2021/03/17 02:46:22;;;;;;;2.50;0.52;;;11.70;76.20;;;;;;5003911;28;20057;-82
2021/03/17 02:48:59;;;;;;;10.10;0.65;;;11.70;76.20;;;;;;5013602;28;20041;-81
2021/03/17 02:51:35;;;;;;;1.95;0.47;;;11.70;76.20;;;;;;4991996;28;20034;-83
2021/03/17 02:54:03;;;;;;;0.93;0.30;;;11.70;76.20;;;;;;5008046;28;20037;-79
2021/03/17 02:56:30;;;;;;;1.95;0.70;;;11.70;76.20;;;;;;5003773;28;20376;-80
2021/03/17 02:58:56;;;;;;;1.63;0.38;;;11.60;76.10;;;;;;4987011;28;20495;-80
2021/03/17 03:01:22;;;;;;;2.15;0.50;;;11.60;76.20;;;;;;5015326;28;20037;-87
2021/03/17 03:03:50;;;;;;;1.00;0.55;;;11.60;76.20;;;;;;4994217;28;20046;-80
2021/03/17 03:06:16;;;;;;;3.63;0.38;;;11.60;76.40;;;;;;5012883;28;20034;-81
2021/03/17 03:08:42;;;;;;;4.75;0.40;;;11.60;76.20;;;;;;5014670;28;20038;-80
2021/03/17 03:11:09;;;;;;;0.98;0.52;;;11.50;76.10;;;;;;4998124;28;20030;-80
2021/03/17 03:13:35;;;;;;;11.15;0.22;;;11.60;76.10;;;;;;4990383;28;20042;-81
2021/03/17 03:16:01;;;;;;;1.50;0.30;;;11.50;76.00;;;;;;4990262;28;20042;-81
2021/03/17 03:18:27;;;;;;;0.43;0.13;;;11.50;76.00;;;;;;4987865;28;20045;-79
2021/03/17 03:20:54;;;;;;;1.00;0.60;;;11.50;76.00;;;;;;4980698;28;20411;-79
2021/03/17 03:23:21;;;;;;;0.35;0.20;;;11.40;75.90;;;;;;5004871;28;20049;-79
2021/03/17 03:25:47;;;;;;;5.25;1.02;;;11.40;75.90;;;;;;4989574;28;20030;-79
2021/03/17 03:28:18;;;;;;;0.30;0.00;;;11.40;75.80;;;;;;4989469;28;20041;-79
2021/03/17 03:30:48;;;;;;;2.10;0.15;;;11.40;76.50;;;;;;4992486;28;20053;-80
2021/03/17 03:33:15;;;;;;;0.20;0.20;;;11.30;75.50;;;;;;5012979;28;20030;-80
2021/03/17 03:35:42;;;;;;;1.27;0.30;;;11.30;75.40;;;;;;5005911;28;20396;-79
2021/03/17 03:38:09;;;;;;;5.82;0.38;;;11.30;75.40;;;;;;4993631;28;20030;-81
2021/03/17 03:40:35;;;;;;;0.50;0.30;;;11.30;75.40;;;;;;4976353;28;20030;-80
2021/03/17 03:43:02;;;;;;;8.98;0.17;;;11.20;75.30;;;;;;4993524;28;20046;-79
2021/03/17 03:45:28;;;;;;;0.75;0.25;;;11.20;75.30;;;;;;5023906;28;20398;-80
2021/03/17 03:47:54;;;;;;;1.33;0.55;;;11.20;75.30;;;;;;5011883;28;20061;-80
2021/03/17 03:50:21;;;;;;;0.55;0.20;;;11.20;75.30;;;;;;4991118;28;20422;-80
2021/03/17 03:53:41;;;;;;;0.35;0.20;;;11.10;75.30;;;;;;5007493;28;20046;-79
2021/03/17 03:56:24;;;;;;;0.32;0.17;;;11.10;75.40;;;;;;4952362;29;20042;-79
2021/03/17 03:58:57;;;;;;;0.38;0.20;;;11.10;75.30;;;;;;4920261;29;20046;-79
2021/03/17 04:01:35;;;;;;;5.75;0.75;;;11.10;75.20;;;;;;4919182;29;20051;-80
2021/03/17 04:04:05;;;;;;;0.68;0.32;;;11.00;75.30;;;;;;4952495;29;20047;-79
2021/03/17 04:06:32;;;;;;;0.77;0.25;;;11.00;75.30;;;;;;4935437;29;20035;-80
2021/03/17 04:08:59;;;;;;;0.00;0.00;;;11.00;75.30;;;;;;4936404;29;20075;-79
2021/03/17 04:11:25;;;;;;;0.85;0.20;;;11.00;75.30;;;;;;4952290;29;20071;-79
2021/03/17 04:13:52;;;;;;;3.03;0.45;;;10.90;75.20;;;;;;4919335;29;20047;-79
2021/03/17 04:16:18;;;;;;;0.63;0.10;;;11.00;75.30;;;;;;4934742;28;20408;-79
2021/03/17 04:18:47;;;;;;;0.85;0.15;;;10.90;75.10;;;;;;4934616;29;20031;-79
2021/03/17 04:21:23;;;;;;;0.63;0.20;;;10.90;75.10;;;;;;4941942;29;20048;-79
2021/03/17 04:23:49;;;;;;;0.00;0.00;;;10.90;74.90;;;;;;4958254;28;20061;-79
2021/03/17 04:26:17;;;;;;;2.05;0.45;;;10.90;74.90;;;;;;4935518;28;20035;-78
2021/03/17 04:28:43;;;;;;;1.75;0.55;;;10.80;74.80;;;;;;5014680;28;20037;-79
2021/03/17 04:31:09;;;;;;;0.88;0.25;;;10.80;74.80;;;;;;5018887;28;20022;-79
2021/03/17 04:33:35;;;;;;;2.22;0.32;;;10.80;74.70;;;;;;5011136;28;20034;-79
2021/03/17 04:36:01;;;;;;;0.10;0.00;;;10.80;74.70;;;;;;4979788;28;20506;-78
2021/03/17 04:38:28;;;;;;;1.45;0.47;;;10.80;74.60;;;;;;4979341;28;20046;-78
2021/03/17 04:40:54;;;;;;;0.20;0.10;;;10.70;74.50;;;;;;5011890;28;20391;-79
2021/03/17 04:43:21;;;;;;;0.20;0.00;;;10.70;74.50;;;;;;4988097;28;20038;-78
2021/03/17 04:45:47;;;;;;;1.02;0.40;;;10.70;74.40;;;;;;4980427;28;20034;-78
2021/03/17 04:48:13;;;;;;;0.47;0.35;;;10.60;74.30;;;;;;4976189;28;20035;-79
2021/03/17 04:50:40;;;;;;;0.05;0.00;;;10.60;74.10;;;;;;4995544;28;20514;-78
2021/03/17 04:53:09;;;;;;;0.75;0.00;;;10.60;74.00;;;;;;4978636;28;20041;-85
2021/03/17 04:55:35;;;;;;;2.22;0.20;;;10.60;74.00;;;;;;4995056;28;20491;-79
2021/03/17 04:58:02;;;;;;;0.00;0.00;;;10.50;73.90;;;;;;4978911;28;20026;-79
2021/03/17 05:00:28;;;;;;;0.55;0.35;;;10.50;73.90;;;;;;4995188;28;20044;-80
2021/03/17 05:02:59;;;;;;;0.00;0.00;;;10.50;73.90;;;;;;5022791;28;20453;-79
2021/03/17 05:05:26;;;;;;;0.00;0.00;;;10.50;73.90;;;;;;4996890;28;20529;-78
2021/03/17 05:07:53;;;;;;;0.28;0.17;;;10.40;73.80;;;;;;5014132;28;20038;-78
2021/03/17 05:10:22;;;;;;;0.77;0.25;;;10.40;73.70;;;;;;5013905;28;20026;-79
2021/03/17 05:12:48;;;;;;;1.38;0.10;;;10.40;73.70;;;;;;4993876;28;20033;-79
2021/03/17 05:15:14;;;;;;;0.47;0.10;;;10.30;73.50;;;;;;4981782;28;20050;-79
2021/03/17 05:17:40;;;;;;;0.20;0.15;;;10.30;73.50;;;;;;4997417;28;20045;-78
2021/03/17 05:20:09;;;;;;;5.03;0.32;;;10.30;73.50;;;;;;5013797;28;20041;-79
2021/03/17 05:22:36;;;;;;;0.50;0.35;;;10.20;73.40;;;;;;5013895;28;20026;-79
2021/03/17 05:25:06;;;;;;;0.73;0.20;;;10.20;73.40;;;;;;5011320;28;20022;-79
2021/03/17 05:27:32;;;;;;;0.20;0.20;;;10.20;73.40;;;;;;4993511;28;20038;-79
2021/03/17 05:29:58;;;;;;;0.30;0.25;;;10.20;73.20;;;;;;4982719;28;20042;-78
2021/03/17 05:32:24;;;;;;;2.75;0.25;;;10.20;73.30;;;;;;4994259;28;20542;-79
2021/03/17 05:34:58;;;;;;;3.50;0.32;;;10.10;73.10;;;;;;4994232;28;20391;-78
2021/03/17 05:37:25;;;;;;;0.63;0.20;;;10.10;73.10;;;;;;4995456;28;20038;-78
2021/03/17 05:39:51;;;;;;;1.80;0.98;;;10.10;73.10;;;;;;4995151;28;20038;-79
2021/03/17 05:42:17;;;;;;;1.20;0.45;;;10.10;73.10;;;;;;4995507;28;20129;-79
2021/03/17 05:44:43;;;;;;;0.10;0.05;;;10.10;73.10;;;;;;4979048;28;20041;-78
2021/03/17 05:47:10;;;;;;;0.15;0.10;;;10.00;73.00;;;;;;4994580;28;20049;-78
2021/03/17 05:49:39;;;;;;;0.00;0.00;;;10.00;73.00;;;;;;4996398;28;20031;-78
2021/03/17 05:52:08;;;;;;;1.80;0.20;;;10.00;73.00;;;;;;4978011;28;20050;-78
2021/03/17 05:54:35;;;;;;;0.13;0.00;;;9.90;72.70;;;;;;4996177;28;20045;-79
2021/03/17 05:57:02;;;;;;;0.80;0.45;;;9.90;72.60;;;;;;4979100;28;20452;-79
2021/03/17 05:59:28;;;;;;;0.45;0.10;;;9.90;72.60;;;;;;4995165;28;20041;-78
2021/03/17 06:01:55;;;;;;;3.22;0.50;;;9.90;72.60;;;;;;4978512;28;20402;-78
2021/03/17 06:04:21;;;;;;;5.97;0.40;;;9.90;72.50;;;;;;4978633;28;20030;-78
2021/03/17 06:06:47;;;;;;;0.32;0.20;;;9.90;72.40;;;;;;5011112;28;20034;-78
2021/03/17 06:09:13;;;;;;;0.80;0.10;;;9.80;72.30;;;;;;5010923;28;20042;-79
2021/03/17 06:11:40;;;;;;;1.85;0.35;;;9.80;72.20;;;;;;5010889;28;20082;-78
2021/03/17 06:14:07;;;;;;;0.17;0.03;;;9.80;72.10;;;;;;5011149;28;20387;-79
2021/03/17 06:16:33;;;;;;;0.98;0.20;;;9.80;72.80;;;;;;5010380;28;20042;-78
2021/03/17 06:19:01;;;;;;;7.13;0.20;;;9.80;72.00;;;;;;4997884;28;20464;-78
2021/03/17 06:21:28;;;;;;;0.20;0.10;;;9.80;72.00;;;;;;5016843;23;20034;-78
2021/03/17 06:23:56;;;;;;;0.43;0.30;;;9.80;72.00;;;;;;4974188;28;20059;-78
2021/03/17 06:26:22;;;;;;;0.80;0.32;;;9.80;71.90;;;;;;4959041;28;20030;-80
2021/03/17 06:28:48;;;;;;;0.52;0.28;;;9.80;71.90;;;;;;4975393;28;20026;-79
2021/03/17 06:31:14;;;;;;;0.93;0.30;;;9.80;71.80;;;;;;4973627;28;20526;-79
2021/03/17 06:33:44;;;;;;;6.20;0.30;;;9.80;71.70;;;;;;4972466;28;20031;-79
2021/03/17 06:36:16;;;;;;;1.55;0.17;;;9.80;71.70;;;;;;4939451;29;20349;-79
2021/03/17 06:38:43;;;;;;;0.10;0.03;;;9.80;71.60;;;;;;4972289;28;20476;-79
2021/03/17 06:41:09;;;;;;;0.40;0.30;;;9.80;71.50;;;;;;4986644;28;20029;-80
2021/03/17 06:43:45;;;;;;;0.15;0.10;;;9.80;71.40;;;;;;4985311;28;20484;-78
2021/03/17 06:46:16;;;;;;;6.68;0.20;;;9.80;71.20;;;;;;4985356;28;20043;-79
2021/03/17 06:48:42;;;;;;;2.08;0.13;;;9.80;71.10;;;;;;4988889;28;20404;-79
2021/03/17 06:51:18;;;;;;;2.40;0.30;;;9.90;71.10;;;;;;4978911;28;20388;-80
2021/03/17 06:53:52;;;;;;;0.90;0.05;;;9.80;71.00;;;;;;4960006;28;20038;-79
2021/03/17 06:56:28;;;;;;;0.90;0.22;;;9.90;71.00;;;;;;4995633;28;20038;-78
2021/03/17 06:58:55;;;;;;;1.38;0.43;;;10.00;70.90;;;;;;4960528;28;20026;-79
2021/03/17 07:01:34;;;;;;;0.32;0.10;;;10.20;70.70;;;;;;4980960;28;20038;-78
2021/03/17 07:04:12;;;;;;;0.57;0.30;;;10.30;70.20;;;;;;4961291;28;20042;-79
2021/03/17 07:06:40;;;;;;;0.40;0.38;;;10.60;69.80;;;;;;4970772;28;20530;-79
2021/03/17 07:09:32;;;;;;;0.55;0.20;;;10.70;69.20;;;;;;4941489;29;20035;-78
2021/03/17 07:12:05;;;;;;;2.35;0.25;;;10.90;68.90;;;;;;4961805;28;20046;-84
2021/03/17 07:14:44;;;;;;;2.17;0.30;;;11.00;68.80;;;;;;4958550;28;20035;-84
2021/03/17 07:17:27;;;;;;;0.55;0.10;;;11.30;68.60;;;;;;4942297;28;20042;-87
2021/03/17 07:19:53;;;;;;;0.25;0.00;;;11.60;68.50;;;;;;4939868;28;20078;-87
2021/03/17 07:22:20;;;;;;;2.17;0.32;;;11.90;68.20;;;;;;4955037;28;20035;-94
2021/03/17 07:24:47;;;;;;;0.00;0.00;;;12.00;67.70;;;;;;4956448;28;20043;-87
2021/03/17 07:27:24;;;;;;;1.00;0.10;;;12.20;67.50;;;;;;4957799;28;20464;-88
2021/03/17 07:30:00;;;;;;;0.43;0.05;;;12.40;67.50;;;;;;4973369;28;20515;-89
2021/03/17 07:32:26;;;;;;;2.92;0.10;;;12.60;67.20;;;;;;4971882;28;20034;-88
2021/03/17 07:34:52;;;;;;;1.60;0.28;;;12.70;67.00;;;;;;4945125;28;20046;-92
2021/03/17 07:37:23;;;;;;;2.17;0.35;;;12.80;67.40;;;;;;4938529;28;20039;-93
2021/03/17 07:39:50;;;;;;;0.05;0.03;;;12.80;66.30;;;;;;4938789;28;20034;-90
2021/03/17 07:42:16;;;;;;;0.00;0.00;;;12.80;66.10;;;;;;4927965;28;20046;-87
2021/03/17 07:44:42;;;;;;;0.10;0.10;;;12.80;65.90;;;;;;4936174;28;20054;-87
2021/03/17 07:47:12;;;;;;;0.15;0.00;;;12.80;65.90;;;;;;4964502;28;20046;-86
2021/03/17 07:49:42;;;;;;;0.15;0.10;;;12.80;65.80;;;;;;4943068;28;20027;-87
2021/03/17 07:52:17;;;;;;;1.55;0.30;;;12.90;65.40;;;;;;4953868;28;20400;-90
2021/03/17 07:54:48;;;;;;;0.75;0.17;;;12.90;65.30;;;;;;4927554;28;20038;-84
2021/03/17 07:57:14;;;;;;;;;;;13.00;64.80;;;;;;4961240;28;20063;-87
2021/03/17 07:59:40;;;;;;;0.22;0.13;;;13.00;64.30;;;;;;4957466;28;19949;-94
2021/03/17 08:02:06;;;;;;;0.00;0.00;;;12.90;64.00;;;;;;4954556;28;20522;-90
2021/03/17 08:04:33;;;;;;;5.95;0.57;;;12.90;63.80;;;;;;4944323;28;20050;-92
2021/03/17 08:07:05;;;;;;;0.65;0.10;;;12.80;63.70;;;;;;4934576;28;20023;-90
2021/03/17 08:09:32;;;;;;;0.40;0.10;;;12.70;63.50;;;;;;4950992;28;20067;-90
2021/03/17 08:12:02;;;;;;;2.55;0.45;;;12.70;63.40;;;;;;4943788;28;20534;-87
2021/03/17 08:14:29;;;;;;;1.33;0.40;;;12.80;63.60;;;;;;4961665;28;20018;-85
2021/03/17 08:16:55;;;;;;;0.00;0.00;;;13.00;63.30;;;;;;4946162;28;20030;-93
2021/03/17 08:19:28;;;;;;;0.00;0.00;;;13.10;63.00;;;;;;4964991;28;20038;-91
2021/03/17 08:22:01;;;;;;;2.53;0.20;;;13.20;62.70;;;;;;4973184;28;20039;-91
2021/03/17 08:24:35;;;;;;;4.78;0.25;;;13.30;62.30;;;;;;4969600;28;20050;-89
2021/03/17 08:27:02;;;;;;;4.03;0.15;;;13.40;62.50;;;;;;4973962;28;20038;-90
2021/03/17 08:29:38;;;;;;;0.10;0.00;;;13.50;62.00;;;;;;4943890;28;20046;-89
2021/03/17 08:32:05;;;;;;;2.92;0.15;;;13.70;61.80;;;;;;4926870;28;20054;-93
2021/03/17 08:34:32;;;;;;;4.90;0.35;;;13.80;61.20;;;;;;4929670;28;20487;-85
2021/03/17 08:37:09;;;;;;;0.68;0.20;;;13.70;60.50;;;;;;4934164;28;20039;-85
2021/03/17 08:39:43;;;;;;;0.00;0.00;;;13.70;60.80;;;;;;4955069;28;20035;-88
2021/03/17 08:42:30;;;;;;;0.85;0.35;;;13.70;60.20;;;;;;4942589;28;20035;-88
2021/03/17 08:45:00;;;;;;;0.63;0.20;;;13.80;60.10;;;;;;4956283;28;20055;-88
2021/03/17 08:47:29;;;;;;;0.00;0.00;;;13.90;60.00;;;;;;4955814;28;20053;-88
2021/03/17 08:50:14;;;;;;;0.30;0.20;;;14.10;59.80;;;;;;4976428;28;20396;-87
2021/03/17 08:52:43;;;;;;;1.17;0.68;;;14.20;59.20;;;;;;4976526;28;20050;-86
2021/03/17 08:55:11;;;;;;;0.00;0.00;;;14.10;58.80;;;;;;4957849;28;20103;-84
2021/03/17 08:58:19;;;;;;;0.00;0.00;;;14.00;58.50;;;;;;4973508;28;20027;-83
2021/03/17 09:01:02;;;;;;;1.08;0.20;;;13.90;58.50;;;;;;4952918;28;20058;-83
2021/03/17 09:03:32;;;;;;;0.17;0.03;;;13.90;58.60;;;;;;4999746;28;20030;-83
2021/03/17 09:06:05;;;;;;;0.63;0.22;;;13.80;58.30;;;;;;4978899;28;20061;-83
2021/03/17 09:08:47;;;;;;;0.00;0.00;;;13.80;58.30;;;;;;4960288;28;20027;-83
2021/03/17 09:11:31;;;;;;;5.07;0.75;;;13.80;58.20;;;;;;4965900;28;20038;-83
2021/03/17 09:14:00;;;;;;;0.10;0.10;;;13.80;57.90;;;;;;4979579;28;20034;-88
2021/03/17 09:16:26;;;;;;;0.08;0.03;;;13.80;57.80;;;;;;4967646;28;20030;-82
2021/03/17 09:19:14;;;;;;;0.00;0.00;;;13.90;57.60;;;;;;4934627;28;20050;-86
2021/03/17 09:21:45;;;;;;;3.58;0.28;;;13.90;57.50;;;;;;4974543;28;22731;-86
2021/03/17 09:24:27;;;;;;;1.67;0.28;;;13.80;57.40;;;;;;4959647;28;20051;-85
2021/03/17 09:27:00;;;;;;;0.68;0.25;;;13.90;57.30;;;;;;4977679;28;20038;-84
2021/03/17 09:29:26;;;;;;;0.00;0.00;;;13.90;57.10;;;;;;4962626;28;20030;-82
2021/03/17 09:31:53;;;;;;;0.00;0.00;;;14.10;56.90;;;;;;4945463;28;20046;-83
2021/03/17 09:34:28;;;;;;;0.30;0.22;;;14.20;56.70;;;;;;4949300;28;20045;-84
2021/03/17 09:37:02;;;;;;;0.08;0.00;;;14.20;56.50;;;;;;4976076;28;20031;-87
2021/03/17 09:39:28;;;;;;;0.00;0.00;;;14.10;56.70;;;;;;4961792;28;20383;-85
2021/03/17 09:41:54;;;;;;;0.20;0.00;;;14.00;56.50;;;;;;4958139;28;20027;-83
2021/03/17 09:44:21;;;;;;;7.57;1.55;;;14.10;56.20;;;;;;4976786;28;20046;-80
2021/03/17 09:46:51;;;;;;;2.30;0.20;;;14.10;56.10;;;;;;4960768;28;20034;-82
2021/03/17 09:49:22;;;;;;;0.00;0.00;;;14.20;56.20;;;;;;4934240;28;20057;-82
2021/03/17 09:51:49;;;;;;;0.20;0.20;;;14.30;55.90;;;;;;4986931;28;20027;-83
2021/03/17 09:54:17;;;;;;;0.30;0.20;;;14.40;55.80;;;;;;4973493;28;20045;-84
2021/03/17 09:57:00;;;;;;;2.05;0.30;;;14.50;55.30;;;;;;4959114;28;20043;-83
2021/03/17 09:59:35;;;;;;;0.77;0.60;;;14.50;55.00;;;;;;4977856;28;20030;-84
2021/03/17 10:02:03;;;;;;;0.00;0.00;;;14.60;54.90;;;;;;4982794;28;20067;-84
2021/03/17 10:04:32;;;;;;;0.40;0.32;;;14.60;54.80;;;;;;4976336;28;20043;-84
2021/03/17 10:06:59;;;;;;;1.38;0.10;;;14.50;54.30;;;;;;4981144;28;20027;-83
2021/03/17 10:09:29;;;;;;;8.60;0.63;;;14.40;54.00;;;;;;4973639;28;20039;-85
2021/03/17 10:12:16;;;;;;;0.10;0.03;;;14.40;54.40;;;;;;4978876;28;20371;-83
2021/03/17 10:14:47;;;;;;;0.82;0.20;;;14.50;54.20;;;;;;4925758;29;20051;-86
2021/03/17 10:17:14;;;;;;;0.00;0.00;;;14.60;54.20;;;;;;4972992;28;20480;-85
2021/03/17 10:19:40;;;;;;;1.90;0.43;;;14.80;54.00;;;;;;4942892;28;20584;-83
2021/03/17 10:22:07;;;;;;;0.90;0.30;;;14.90;53.70;;;;;;4988878;28;20043;-85
2021/03/17 10:24:41;;;;;;;0.10;0.10;;;14.90;53.60;;;;;;4956324;28;20039;-82
2021/03/17 10:27:10;;;;;;;1.05;0.50;;;15.00;53.50;;;;;;4976971;28;20034;-81
2021/03/17 10:29:37;;;;;;;6.00;0.22;;;15.10;53.40;;;;;;4961055;28;20029;-82
2021/03/17 10:32:05;;;;;;;0.10;0.00;;;15.10;53.20;;;;;;4960492;28;20034;-82
2021/03/17 10:34:31;;;;;;;14.13;0.60;;;15.30;53.30;;;;;;4961250;28;20039;-82
2021/03/17 10:36:57;;;;;;;0.47;0.28;;;15.40;53.10;;;;;;4940552;28;20045;-81
2021/03/17 10:39:25;;;;;;;2.30;0.10;;;15.60;53.10;;;;;;4956685;28;20042;-82
2021/03/17 10:41:51;;;;;;;0.32;0.08;;;15.70;53.00;;;;;;4978350;28;20037;-82
2021/03/17 10:44:27;;;;;;;0.00;0.00;;;15.80;52.80;;;;;;4960493;28;20373;-83
2021/03/17 10:47:08;;;;;;;5.78;0.32;;;15.90;52.90;;;;;;4944202;28;20034;-81
2021/03/17 10:49:37;;;;;;;6.45;0.40;;;16.10;52.80;;;;;;4987402;28;20034;-83
2021/03/17 10:52:03;;;;;;;0.70;0.45;;;16.10;52.70;;;;;;4957883;28;20045;-82
2021/03/17 10:54:34;;;;;;;0.00;0.00;;;16.20;52.70;;;;;;4973238;28;20462;-85
2021/03/17 10:57:01;;;;;;;0.98;0.52;;;16.20;52.50;;;;;;4971505;28;20498;-82
2021/03/17 10:59:40;;;;;;;1.70;0.28;;;16.20;52.20;;;;;;4959375;28;20031;-82
2021/03/17 11:02:25;;;;;;;2.03;0.43;;;16.10;52.20;;;;;;4945826;28;20026;-81
2021/03/17 11:05:20;;;;;;;1.00;0.20;;;16.20;52.40;;;;;;4968487;23;20039;-85
2021/03/17 11:07:59;;;;;;;0.30;0.10;;;16.30;52.20;;;;;;4955829;28;20069;-86
2021/03/17 11:10:39;;;;;;;1.35;0.10;;;16.20;51.70;;;;;;4955797;28;20503;-86
2021/03/17 11:13:17;;;;;;;0.70;0.40;;;16.20;51.70;;;;;;4963724;28;20372;-87
2021/03/17 11:15:50;;;;;;;0.50;0.17;;;16.30;51.60;;;;;;4953901;28;20042;-86
2021/03/17 11:18:22;;;;;;;1.08;0.10;;;16.40;51.80;;;;;;4953189;28;20034;-87
2021/03/17 11:20:49;;;;;;;7.50;0.43;;;16.50;51.10;;;;;;4968964;28;20094;-86
2021/03/17 11:23:16;;;;;;;0.28;0.28;;;16.30;50.80;;;;;;4943038;28;20038;-86
2021/03/17 11:25:43;;;;;;;2.13;0.20;;;16.20;50.90;;;;;;4942740;28;20050;-87
2021/03/17 11:28:13;;;;;;;1.35;0.20;;;16.20;50.70;;;;;;4947348;28;20027;-86
2021/03/17 11:30:44;;;;;;;6.30;0.40;;;16.10;50.70;;;;;;4957993;28;20039;-87
2021/03/17 11:33:13;;;;;;;;;;;16.10;50.90;;;;;;4951399;28;20049;-87
2021/03/17 11:35:40;;;;;;;0.80;0.55;;;16.20;50.70;;;;;;4965949;28;20313;-87
2021/03/17 11:38:07;;;;;;;0.00;0.00;;;16.20;50.50;;;;;;4967511;28;20035;-87
2021/03/17 11:40:33;;;;;;;6.13;0.20;;;16.30;50.40;;;;;;4966160;28;20031;-87
2021/03/17 11:43:04;;;;;;;2.03;0.25;;;16.40;50.10;;;;;;4968949;28;20031;-86
2021/03/17 11:45:30;;;;;;;3.53;0.52;;;16.40;50.10;;;;;;4964564;28;20511;-86
2021/03/17 11:47:56;;;;;;;0.98;0.40;;;16.60;50.00;;;;;;4940058;28;20050;-87
2021/03/17 11:50:22;;;;;;;1.85;0.68;;;16.70;50.00;;;;;;4962977;28;20178;-86
2021/03/17 11:52:48;;;;;;;0.57;0.10;;;16.90;50.00;;;;;;4959521;28;20034;-87
2021/03/17 11:55:20;;;;;;;2.17;0.32;;;16.90;50.00;;;;;;4967165;28;20030;-86
2021/03/17 11:57:46;;;;;;;0.00;0.00;;;16.90;50.00;;;;;;4968971;28;20383;-86
2021/03/17 12:00:13;;;;;;;1.25;0.20;;;16.90;50.00;;;;;;4967130;28;20466;-87
2021/03/17 12:02:39;;;;;;;4.57;0.43;;;16.80;49.80;;;;;;4966947;28;20026;-86
2021/03/17 12:05:06;;;;;;;2.17;0.40;;;16.50;50.00;;;;;;4959386;28;20591;-87
2021/03/17 12:07:32;;;;;;;3.58;0.10;;;16.40;50.10;;;;;;4940736;28;20027;-87
2021/03/17 12:09:58;;;;;;;5.82;0.28;;;16.40;49.80;;;;;;4967229;28;20031;-87
2021/03/17 12:12:24;;;;;;;0.35;0.15;;;16.40;49.80;;;;;;4969151;28;20046;-87
2021/03/17 12:14:50;;;;;;;0.28;0.08;;;16.40;50.20;;;;;;4949281;28;20027;-87
2021/03/17 12:17:16;;;;;;;0.00;0.00;;;16.50;49.70;;;;;;4960755;28;20031;-87
2021/03/17 12:19:42;;;;;;;0.30;0.13;;;16.60;49.40;;;;;;4958308;28;20050;-87
2021/03/17 12:22:09;;;;;;;0.00;0.00;;;16.70;49.10;;;;;;4967011;28;20086;-86
2021/03/17 12:24:35;;;;;;;0.45;0.03;;;16.70;48.90;;;;;;4955379;28;20487;-87
2021/03/17 12:27:01;;;;;;;1.17;0.10;;;16.70;48.70;;;;;;4953618;28;20034;-87
2021/03/17 12:29:27;;;;;;;0.20;0.10;;;16.80;48.70;;;;;;4944209;29;20040;-87
2021/03/17 12:31:53;;;;;;;2.67;0.30;;;16.80;48.70;;;;;;4959583;28;20042;-86
2021/03/17 12:34:19;;;;;;;1.17;0.00;;;16.80;48.20;;;;;;4965956;28;20027;-86
2021/03/17 12:36:45;;;;;;;1.25;0.13;;;16.70;48.20;;;;;;4969446;28;20035;-86
2021/03/17 12:39:11;;;;;;;1.02;0.00;;;16.70;48.10;;;;;;4968391;28;20486;-87
2021/03/17 12:41:37;;;;;;;0.28;0.00;;;16.70;48.10;;;;;;4959324;28;20031;-86
2021/03/17 12:44:04;;;;;;;5.00;0.35;;;16.70;48.10;;;;;;4961982;28;20026;-86
2021/03/17 12:46:30;;;;;;;4.50;0.68;;;16.80;48.10;;;;;;4950523;28;20046;-86
2021/03/17 12:48:56;;;;;;;1.38;0.10;;;16.80;48.00;;;;;;4953599;28;20031;-87
2021/03/17 12:51:22;;;;;;;1.38;0.00;;;16.70;47.80;;;;;;4951911;28;20069;-86
2021/03/17 12:53:48;;;;;;;0.00;0.00;;;16.70;48.00;;;;;;4960904;28;20038;-86
2021/03/17 12:56:15;;;;;;;2.55;0.30;;;16.70;48.10;;;;;;4969629;28;20050;-86
2021/03/17 12:58:41;;;;;;;3.25;0.43;;;16.70;47.90;;;;;;4934274;28;20042;-86
2021/03/17 13:01:07;;;;;;;7.72;0.13;;;16.70;47.70;;;;;;4944993;28;20031;-88